createdAt,value
2023-05-05T00:01:47.978Z,100304.56
2023-05-05T00:04:22.462Z,100303.22
2023-05-05T00:06:52.631Z,100301.09
2023-05-05T00:09:20.632Z,100294.44
2023-05-05T00:11:50.303Z,100287.09
2023-05-05T00:14:21.626Z,100297.47
2023-05-05T00:16:50.178Z,100299.59
2023-05-05T00:19:21.208Z,100294.88
2023-05-05T00:21:49.337Z,100296.72
2023-05-05T00:24:17.288Z,100285.94
2023-05-05T00:26:46.747Z,100291.09
2023-05-05T00:29:16.831Z,100288.50
2023-05-05T00:31:46.706Z,100282.22
2023-05-05T00:34:15.207Z,100290.41
2023-05-05T00:36:44.288Z,100294.81
2023-05-05T00:39:15.404Z,100289.22
2023-05-05T00:41:44.864Z,100285.19
2023-05-05T00:44:12.644Z,100289.22
2023-05-05T00:46:45.853Z,100279.66
2023-05-05T00:49:14.309Z,100262.69
2023-05-05T00:51:42.768Z,100287.94
2023-05-05T00:54:10.767Z,100287.47
2023-05-05T00:56:38.857Z,100281.41
2023-05-05T00:59:10.592Z,100291.34
2023-05-05T01:01:40.581Z,100278.28
2023-05-05T01:04:10.291Z,100275.19
2023-05-05T01:06:47.466Z,100283.38
2023-05-05T01:09:25.954Z,100283.84
2023-05-05T01:12:04.254Z,100283.00
2023-05-05T01:14:41.061Z,100277.78
2023-05-05T01:17:17.130Z,100271.63
2023-05-05T01:19:57.840Z,100275.50
2023-05-05T01:22:36.314Z,100267.59
2023-05-05T01:25:55.904Z,100250.66
2023-05-05T01:28:45.209Z,100277.34
2023-05-05T01:31:26.174Z,100268.59
2023-05-05T01:34:05.130Z,100270.63
2023-05-05T01:36:38.709Z,100272.75
2023-05-05T01:39:10.853Z,100275.16
2023-05-05T01:41:46.824Z,100274.78
2023-05-05T01:44:16.484Z,100264.50
2023-05-05T01:46:46.002Z,100261.19
2023-05-05T01:49:22.181Z,100254.91
2023-05-05T01:51:52.261Z,100254.53
2023-05-05T01:54:21.421Z,100245.66
2023-05-05T01:56:50.691Z,100250.97
2023-05-05T01:59:28.578Z,100247.69
2023-05-05T02:02:00.411Z,100232.25
2023-05-05T02:04:34.047Z,100234.16
2023-05-05T02:07:04.626Z,100239.00
2023-05-05T02:09:34.208Z,100242.22
2023-05-05T02:12:05.300Z,100248.25
2023-05-05T02:14:36.986Z,100248.09
2023-05-05T02:17:05.584Z,100257.00
2023-05-05T02:19:43.217Z,100250.72
2023-05-05T02:22:12.199Z,100270.03
2023-05-05T02:24:40.459Z,100265.09
2023-05-05T02:27:09.472Z,100275.47
2023-05-05T02:29:42.909Z,100273.81
2023-05-05T02:32:17.579Z,100274.50
2023-05-05T02:34:52.463Z,100278.06
2023-05-05T02:37:24.496Z,100281.34
2023-05-05T02:39:59.606Z,100285.81
2023-05-05T02:42:38.033Z,100288.69
2023-05-05T02:45:13.976Z,100276.44
2023-05-05T02:47:42.019Z,100273.94
2023-05-05T02:50:13.012Z,100294.22
2023-05-05T02:52:41.247Z,100285.31
2023-05-05T02:55:10.582Z,100291.66
2023-05-05T02:57:44.620Z,100292.72
2023-05-05T03:00:21.672Z,100305.28
2023-05-05T03:03:02.002Z,100296.53
2023-05-05T03:05:38.552Z,100291.44
2023-05-05T03:08:15.680Z,100298.75
2023-05-05T03:10:50.110Z,100293.81
2023-05-05T03:13:21.600Z,100291.47
2023-05-05T03:15:52.827Z,100257.53
2023-05-05T03:18:22.416Z,100282.09
2023-05-05T03:20:52.646Z,100294.09
2023-05-05T03:23:23.040Z,100292.00
2023-05-05T03:25:53.120Z,100293.53
2023-05-05T03:28:21.494Z,100305.03
2023-05-05T03:30:49.279Z,100297.19
2023-05-05T03:33:18.004Z,100310.09
2023-05-05T03:35:49.031Z,100296.69
2023-05-05T03:38:18.663Z,100302.50
2023-05-05T03:40:46.458Z,100301.34
2023-05-05T03:43:14.293Z,100279.53
2023-05-05T03:45:42.260Z,100295.03
2023-05-05T03:48:11.490Z,100293.84
2023-05-05T03:50:39.444Z,100307.03
2023-05-05T03:53:07.477Z,100294.56
2023-05-05T03:55:37.031Z,100304.94
2023-05-05T03:58:06.713Z,100310.44
2023-05-05T04:00:35.149Z,100295.81
2023-05-05T04:03:03.765Z,100315.44
2023-05-05T04:05:31.999Z,100299.81
2023-05-05T04:08:03.363Z,100304.81
2023-05-05T04:10:31.490Z,100302.00
2023-05-05T04:13:00.846Z,100301.47
2023-05-05T04:15:31.365Z,100294.72
2023-05-05T04:18:00.401Z,100294.00
2023-05-05T04:20:28.554Z,100303.03
2023-05-05T04:22:59.028Z,100287.81
2023-05-05T04:25:28.177Z,100292.66
2023-05-05T04:27:56.048Z,100294.88
2023-05-05T04:30:29.044Z,100300.66
2023-05-05T04:32:56.877Z,100306.19
2023-05-05T04:35:25.038Z,100309.88
2023-05-05T04:37:54.731Z,100308.09
2023-05-05T04:40:26.373Z,100316.94
2023-05-05T04:42:54.987Z,100317.88
2023-05-05T04:45:23.900Z,100325.50
2023-05-05T04:47:53.187Z,100327.03
2023-05-05T04:50:21.267Z,100323.03
2023-05-05T04:52:50.247Z,100330.38
2023-05-05T04:55:19.238Z,100315.19
2023-05-05T04:57:48.357Z,100319.84
2023-05-05T05:00:17.049Z,100331.09
2023-05-05T05:02:45.740Z,100340.44
2023-05-05T05:05:21.784Z,100342.13
2023-05-05T05:07:53.135Z,100334.78
2023-05-05T05:10:22.384Z,100345.78
2023-05-05T05:12:50.483Z,100341.53
2023-05-05T05:15:19.851Z,100343.31
2023-05-05T05:17:47.945Z,100347.47
2023-05-05T05:20:21.150Z,100355.88
2023-05-05T05:22:49.244Z,100357.53
2023-05-05T05:25:19.315Z,100349.00
2023-05-05T05:27:52.323Z,100351.38
2023-05-05T05:30:30.357Z,100343.50
2023-05-05T05:32:58.208Z,100346.34
2023-05-05T05:35:27.539Z,100351.00
2023-05-05T05:37:55.402Z,100352.66
2023-05-05T05:40:24.951Z,100348.66
2023-05-05T05:42:53.065Z,100348.00
2023-05-05T05:45:21.746Z,100330.09
2023-05-05T05:47:52.297Z,100344.06
2023-05-05T05:50:20.160Z,100351.69
2023-05-05T05:52:49.356Z,100362.34
2023-05-05T05:55:18.992Z,100354.63
2023-05-05T05:57:48.164Z,100369.16
2023-05-05T06:00:17.208Z,100368.50
2023-05-05T06:02:45.865Z,100363.66
2023-05-05T06:05:14.122Z,100360.34
2023-05-05T06:07:41.887Z,100365.19
2023-05-05T06:10:26.432Z,100361.00
2023-05-05T06:12:54.917Z,100374.72
2023-05-05T06:15:22.872Z,100375.53
2023-05-05T06:17:51.212Z,100365.38
2023-05-05T06:20:20.608Z,100370.56
2023-05-05T06:22:48.310Z,100376.47
2023-05-05T06:25:19.209Z,100369.16
2023-05-05T06:27:48.387Z,100376.53
2023-05-05T06:30:16.499Z,100377.59
2023-05-05T06:32:44.374Z,100388.38
2023-05-05T06:35:12.369Z,100380.50
2023-05-05T06:37:40.556Z,100385.63
2023-05-05T06:40:11.467Z,100380.72
2023-05-05T06:42:41.665Z,100377.78
2023-05-05T06:45:10.482Z,100380.56
2023-05-05T06:47:38.844Z,100371.56
2023-05-05T06:50:09.417Z,100374.47
2023-05-05T06:52:37.797Z,100372.00
2023-05-05T06:55:06.354Z,100363.72
2023-05-05T06:57:34.194Z,100371.06
2023-05-05T07:00:05.900Z,100369.34
2023-05-05T07:02:36.342Z,100377.22
2023-05-05T07:05:04.324Z,100375.06
2023-05-05T07:07:33.545Z,100373.09
2023-05-05T07:10:02.268Z,100368.69
2023-05-05T07:12:32.148Z,100375.94
2023-05-05T07:15:04.789Z,100380.97
2023-05-05T07:17:39.193Z,100378.63
2023-05-05T07:20:13.919Z,100377.91
2023-05-05T07:22:42.266Z,100383.59
2023-05-05T07:25:11.043Z,100384.94
2023-05-05T07:27:39.764Z,100383.22
2023-05-05T07:30:13.099Z,100376.66
2023-05-05T07:32:43.501Z,100372.25
2023-05-05T07:35:12.226Z,100380.53
2023-05-05T07:37:40.238Z,100380.53
2023-05-05T07:40:10.273Z,100379.13
2023-05-05T07:42:38.574Z,100381.56
2023-05-05T07:45:11.391Z,100374.41
2023-05-05T07:47:40.557Z,100371.50
2023-05-05T07:50:11.743Z,100379.31
2023-05-05T07:55:10.462Z,100366.19
2023-05-05T07:57:38.578Z,100354.34
2023-05-05T08:00:08.626Z,100361.94
2023-05-05T08:02:36.913Z,100358.38
2023-05-05T08:05:07.060Z,100362.72
2023-05-05T08:07:43.404Z,100361.06
2023-05-05T08:10:12.475Z,100356.94
2023-05-05T08:12:43.335Z,100363.94
2023-05-05T08:15:12.241Z,100364.88
2023-05-05T08:17:48.319Z,100356.88
2023-05-05T08:20:17.793Z,100364.38
2023-05-05T08:22:48.744Z,100363.97
2023-05-05T08:25:17.565Z,100356.03
2023-05-05T08:27:46.203Z,100346.09
2023-05-05T08:30:17.273Z,100358.69
2023-05-05T08:32:46.879Z,100359.97
2023-05-05T08:35:14.953Z,100363.06
2023-05-05T08:37:43.300Z,100358.34
2023-05-05T08:40:17.410Z,100365.97
2023-05-05T08:42:46.451Z,100363.78
2023-05-05T08:45:16.198Z,100359.66
2023-05-05T08:47:48.250Z,100352.56
2023-05-05T08:50:20.105Z,100354.81
2023-05-05T08:53:00.879Z,100358.22
2023-05-05T08:55:36.462Z,100365.75
2023-05-05T08:58:06.130Z,100365.19
2023-05-05T09:00:34.861Z,100371.19
2023-05-05T09:03:04.401Z,100364.63
2023-05-05T09:05:32.835Z,100361.19
2023-05-05T09:08:04.021Z,100362.56
2023-05-05T09:10:34.232Z,100357.22
2023-05-05T09:13:05.825Z,100357.34
2023-05-05T09:15:34.825Z,100356.66
2023-05-05T09:18:05.663Z,100350.03
2023-05-05T09:20:36.326Z,100362.00
2023-05-05T09:23:14.167Z,100354.91
2023-05-05T09:25:47.304Z,100358.78
2023-05-05T09:28:16.547Z,100353.91
2023-05-05T09:30:46.956Z,100349.38
2023-05-05T09:33:18.375Z,100351.81
2023-05-05T09:35:52.669Z,100347.72
2023-05-05T09:38:24.880Z,100352.00
2023-05-05T09:40:55.134Z,100347.13
2023-05-05T09:43:24.954Z,100353.13
2023-05-05T09:45:53.501Z,100346.94
2023-05-05T09:48:26.580Z,100340.31
2023-05-05T09:50:57.863Z,100342.47
2023-05-05T09:53:27.969Z,100337.47
2023-05-05T09:56:01.346Z,100332.44
2023-05-05T09:58:31.111Z,100339.69
2023-05-05T10:01:01.453Z,100328.22
2023-05-05T10:03:30.772Z,100333.00
2023-05-05T10:06:01.378Z,100318.69
2023-05-05T10:08:30.835Z,100321.53
2023-05-05T10:11:04.981Z,100318.22
2023-05-05T10:13:37.681Z,100306.50
2023-05-05T10:16:09.279Z,100323.66
2023-05-05T10:18:41.135Z,100297.47
2023-05-05T10:21:12.023Z,100293.72
2023-05-05T10:23:45.428Z,100297.00
2023-05-05T10:26:16.080Z,100289.03
2023-05-05T10:28:47.228Z,100287.66
2023-05-05T10:31:25.702Z,100281.84
2023-05-05T10:33:57.730Z,100280.91
2023-05-05T10:36:26.517Z,100272.38
2023-05-05T10:38:59.383Z,100282.75
2023-05-05T10:41:30.861Z,100276.63
2023-05-05T10:44:02.184Z,100273.28
2023-05-05T10:46:33.750Z,100263.34
2023-05-05T10:49:13.442Z,100260.91
2023-05-05T10:51:54.739Z,100253.91
2023-05-05T10:54:41.329Z,100259.75
2023-05-05T10:57:11.912Z,100267.44
2023-05-05T10:59:45.591Z,100259.72
2023-05-05T11:02:21.971Z,100258.50
2023-05-05T11:05:12.589Z,100258.94
2023-05-05T11:07:45.004Z,100244.91
2023-05-05T11:10:14.636Z,100248.91
2023-05-05T11:13:21.929Z,100243.06
2023-05-05T11:15:56.818Z,100247.34
2023-05-05T11:18:35.768Z,100240.22
2023-05-05T11:21:19.328Z,100232.44
2023-05-05T11:23:50.251Z,100228.03
2023-05-05T11:26:19.970Z,100225.84
2023-05-05T11:29:06.043Z,100229.13
2023-05-05T11:31:34.026Z,100217.94
2023-05-05T11:34:28.087Z,100214.22
2023-05-05T11:37:09.264Z,100207.69
2023-05-05T11:39:44.454Z,100225.25
2023-05-05T11:42:27.307Z,100215.75
2023-05-05T11:44:57.371Z,100218.63
2023-05-05T11:47:32.833Z,100212.31
2023-05-05T11:50:21.527Z,100220.72
2023-05-05T11:52:50.671Z,100203.91
2023-05-05T11:55:28.246Z,100214.72
2023-05-05T11:57:56.573Z,100203.91
2023-05-05T12:00:39.288Z,100194.75
2023-05-05T12:03:07.543Z,100190.38
2023-05-05T12:05:43.183Z,100193.00
2023-05-05T12:08:13.969Z,100195.13
2023-05-05T12:10:42.056Z,100187.22
2023-05-05T12:13:20.027Z,100181.31
2023-05-05T12:15:51.676Z,100184.63
2023-05-05T12:18:20.401Z,100176.56
2023-05-05T12:20:48.590Z,100191.53
2023-05-05T12:23:20.269Z,100185.59
2023-05-05T12:25:48.326Z,100181.22
2023-05-05T12:28:16.263Z,100179.94
2023-05-05T12:30:45.212Z,100188.19
2023-05-05T12:33:16.093Z,100180.16
2023-05-05T12:35:45.650Z,100174.50
2023-05-05T12:38:18.562Z,100179.34
2023-05-05T12:40:49.702Z,100181.13
2023-05-05T12:43:31.685Z,100179.59
2023-05-05T12:46:05.461Z,100175.09
2023-05-05T12:48:38.003Z,100173.94
2023-05-05T12:51:23.089Z,100171.22
2023-05-05T12:54:04.116Z,100186.25
2023-05-05T12:56:49.150Z,100165.75
2023-05-05T12:59:35.092Z,100166.47
2023-05-05T13:02:05.099Z,100164.97
2023-05-05T13:04:35.852Z,100157.59
2023-05-05T13:07:13.179Z,100151.00
2023-05-05T13:09:44.596Z,100150.81
2023-05-05T13:12:13.321Z,100140.25
2023-05-05T13:14:41.987Z,100139.22
2023-05-05T13:17:10.819Z,100124.66
2023-05-05T13:19:46.369Z,100129.22
2023-05-05T13:22:15.613Z,100128.88
2023-05-05T13:24:51.680Z,100115.44
2023-05-05T13:27:23.880Z,100106.09
2023-05-05T13:29:52.253Z,100118.69
2023-05-05T13:32:20.548Z,100100.78
2023-05-05T13:34:51.075Z,100105.28
2023-05-05T13:37:20.063Z,100097.25
2023-05-05T13:39:48.011Z,100095.88
2023-05-05T13:42:19.927Z,100092.09
2023-05-05T13:44:48.618Z,100082.63
2023-05-05T13:47:20.826Z,100078.34
2023-05-05T13:49:51.492Z,100080.00
2023-05-05T13:52:19.536Z,100074.94
2023-05-05T13:54:48.145Z,100072.38
2023-05-05T13:57:17.100Z,100065.97
2023-05-05T13:59:45.075Z,100069.34
2023-05-05T14:02:13.252Z,100063.16
2023-05-05T14:04:42.875Z,100069.34
2023-05-05T14:07:14.687Z,100065.34
2023-05-05T14:09:44.750Z,100061.00
2023-05-05T14:12:13.464Z,100065.09
2023-05-05T14:14:42.881Z,100068.31
2023-05-05T14:17:11.571Z,100073.19
2023-05-05T14:19:39.452Z,100068.22
2023-05-05T14:22:11.247Z,100062.13
2023-05-05T14:24:42.096Z,100066.16
2023-05-05T14:27:11.412Z,100060.19
2023-05-05T14:29:44.236Z,100060.72
2023-05-05T14:32:12.195Z,100059.25
2023-05-05T14:34:43.227Z,100067.53
2023-05-05T14:37:11.783Z,100063.41
2023-05-05T14:39:41.581Z,100053.63
2023-05-05T14:42:10.109Z,100066.56
2023-05-05T14:44:38.393Z,100066.44
2023-05-05T14:47:07.252Z,100071.91
2023-05-05T14:49:36.325Z,100070.34
2023-05-05T14:52:04.841Z,100064.00
2023-05-05T14:54:33.402Z,100065.00
2023-05-05T14:57:05.667Z,100059.78
2023-05-05T14:59:34.789Z,100072.28
2023-05-05T15:02:05.915Z,100063.31
2023-05-05T15:04:34.938Z,100074.22
2023-05-05T15:07:04.009Z,100079.13
2023-05-05T15:09:33.706Z,100084.34
2023-05-05T15:12:02.991Z,100085.50
2023-05-05T15:14:33.734Z,100074.75
2023-05-05T15:17:02.910Z,100083.38
2023-05-05T15:19:36.110Z,100088.38
2023-05-05T15:22:05.249Z,100090.69
2023-05-05T15:24:33.255Z,100087.38
2023-05-05T15:27:04.376Z,100085.72
2023-05-05T15:29:33.477Z,100104.50
2023-05-05T15:32:04.921Z,100109.78
2023-05-05T15:34:34.163Z,100161.25
2023-05-05T15:37:07.139Z,100167.09
2023-05-05T15:39:36.613Z,100161.16
2023-05-05T15:42:06.797Z,100182.38
2023-05-05T15:44:34.812Z,100172.63
2023-05-05T15:47:03.784Z,100177.59
2023-05-05T15:49:32.441Z,100167.44
2023-05-05T15:52:02.143Z,100159.69
2023-05-05T15:54:44.951Z,100160.25
2023-05-05T15:57:20.287Z,100162.69
2023-05-05T15:59:50.661Z,100163.25
2023-05-05T16:02:21.015Z,100158.56
2023-05-05T16:04:49.299Z,100153.06
2023-05-05T16:07:20.586Z,100154.44
2023-05-05T16:09:48.509Z,100149.72
2023-05-05T16:12:32.541Z,100136.47
2023-05-05T16:15:01.804Z,100146.69
2023-05-05T16:17:30.156Z,100147.78
2023-05-05T16:19:59.010Z,100146.66
2023-05-05T16:22:28.225Z,100152.38
2023-05-05T16:24:56.420Z,100152.00
2023-05-05T16:27:26.597Z,100151.19
2023-05-05T16:29:55.668Z,100156.09
2023-05-05T16:32:26.210Z,100161.81
2023-05-05T16:34:56.137Z,100166.97
2023-05-05T16:37:26.962Z,100158.91
2023-05-05T16:39:56.447Z,100157.78
2023-05-05T16:42:25.920Z,100172.31
2023-05-05T16:44:53.777Z,100169.28
2023-05-05T16:47:23.106Z,100172.78
2023-05-05T16:49:52.563Z,100171.38
2023-05-05T16:52:22.119Z,100175.19
2023-05-05T16:54:55.789Z,100171.06
2023-05-05T16:57:29.202Z,100177.00
2023-05-05T16:59:57.906Z,100184.03
2023-05-05T17:02:26.973Z,100198.44
2023-05-05T17:04:54.874Z,100194.38
2023-05-05T17:07:22.989Z,100194.03
2023-05-05T17:09:51.932Z,100187.66
2023-05-05T17:12:20.104Z,100195.94
2023-05-05T17:14:51.568Z,100194.56
2023-05-05T17:17:22.157Z,100198.69
2023-05-05T17:19:52.063Z,100200.69
2023-05-05T17:22:20.403Z,100201.56
2023-05-05T17:24:49.508Z,100189.09
2023-05-05T17:27:17.887Z,100199.75
2023-05-05T17:29:47.326Z,100191.47
2023-05-05T17:32:17.325Z,100197.97
2023-05-05T17:34:48.321Z,100193.41
2023-05-05T17:37:16.483Z,100181.72
2023-05-05T17:39:47.511Z,100192.78
2023-05-05T17:42:16.906Z,100210.66
2023-05-05T17:44:46.967Z,100211.66
2023-05-05T17:47:22.255Z,100210.28
2023-05-05T17:49:51.039Z,100207.25
2023-05-05T17:52:19.223Z,100212.47
2023-05-05T17:54:48.764Z,100214.72
2023-05-05T17:57:18.768Z,100220.53
2023-05-05T17:59:47.237Z,100214.81
2023-05-05T18:02:15.628Z,100226.69
2023-05-05T18:04:49.560Z,100223.94
2023-05-05T18:07:19.190Z,100226.72
2023-05-05T18:09:47.815Z,100226.75
2023-05-05T18:12:17.279Z,100230.31
2023-05-05T18:14:46.471Z,100222.56
2023-05-05T18:17:15.080Z,100220.63
2023-05-05T18:19:46.574Z,100222.94
2023-05-05T18:22:20.172Z,100219.94
2023-05-05T18:24:51.857Z,100228.19
2023-05-05T18:27:20.039Z,100230.97
2023-05-05T18:29:49.156Z,100229.59
2023-05-05T18:32:19.164Z,100224.13
2023-05-05T18:34:47.088Z,100231.56
2023-05-05T18:37:17.933Z,100229.75
2023-05-05T18:39:47.195Z,100226.25
2023-05-05T18:42:16.663Z,100231.53
2023-05-05T18:44:45.409Z,100227.16
2023-05-05T18:47:13.752Z,100231.53
2023-05-05T18:49:42.276Z,100224.41
2023-05-05T18:52:10.967Z,100235.63
2023-05-05T18:54:43.489Z,100242.81
2023-05-05T18:57:11.812Z,100239.81
2023-05-05T18:59:40.425Z,100254.13
2023-05-05T19:02:08.668Z,100258.25
2023-05-05T19:04:38.171Z,100259.91
2023-05-05T19:07:08.589Z,100259.94
2023-05-05T19:09:37.216Z,100263.16
2023-05-05T19:12:07.154Z,100263.50
2023-05-05T19:14:37.044Z,100268.19
2023-05-05T19:17:05.101Z,100262.41
2023-05-05T19:19:41.521Z,100248.91
2023-05-05T19:22:10.337Z,100251.41
2023-05-05T19:24:41.396Z,100261.03
2023-05-05T19:27:15.457Z,100247.31
2023-05-05T19:29:50.146Z,100255.84
2023-05-05T19:32:22.226Z,100268.50
2023-05-05T19:34:54.381Z,100257.50
2023-05-05T19:37:22.869Z,100267.94
2023-05-05T19:39:51.664Z,100269.31
2023-05-05T19:42:21.815Z,100260.78
2023-05-05T19:44:52.992Z,100261.88
2023-05-05T19:47:21.525Z,100265.47
2023-05-05T19:49:51.629Z,100265.19
2023-05-05T19:52:22.458Z,100271.53
2023-05-05T19:54:51.083Z,100270.97
2023-05-05T19:57:19.871Z,100262.66
2023-05-05T19:59:51.079Z,100267.88
2023-05-05T20:02:20.344Z,100272.28
2023-05-05T20:04:50.516Z,100271.38
2023-05-05T20:07:21.601Z,100269.84
2023-05-05T20:09:49.868Z,100265.88
2023-05-05T20:12:19.832Z,100266.31
2023-05-05T20:14:53.800Z,100276.78
2023-05-05T20:17:21.860Z,100281.13
2023-05-05T20:19:49.976Z,100283.38
2023-05-05T20:22:19.954Z,100286.44
2023-05-05T20:24:50.782Z,100281.56
2023-05-05T20:27:19.951Z,100287.06
2023-05-05T20:29:53.166Z,100292.94
2023-05-05T20:32:23.370Z,100301.00
2023-05-05T20:34:52.558Z,100292.66
2023-05-05T20:37:24.903Z,100293.06
2023-05-05T20:39:56.661Z,100294.47
2023-05-05T20:42:27.665Z,100299.63
2023-05-05T20:44:59.785Z,100304.41
2023-05-05T20:47:29.738Z,100307.28
2023-05-05T20:49:57.578Z,100307.97
2023-05-05T20:52:25.924Z,100302.09
2023-05-05T20:54:56.063Z,100296.13
2023-05-05T20:57:25.937Z,100291.41
2023-05-05T20:59:54.916Z,100296.19
2023-05-05T21:02:26.694Z,100297.09
2023-05-05T21:04:54.785Z,100302.31
2023-05-05T21:07:25.554Z,100306.41
2023-05-05T21:09:53.408Z,100299.84
2023-05-05T21:12:26.555Z,100311.88
2023-05-05T21:14:56.895Z,100302.81
2023-05-05T21:17:29.140Z,100309.22
2023-05-05T21:19:59.840Z,100309.81
2023-05-05T21:22:27.788Z,100305.41
2023-05-05T21:25:15.754Z,100311.13
2023-05-05T21:27:43.919Z,100312.19
2023-05-05T21:30:14.693Z,100294.66
2023-05-05T21:32:46.166Z,100310.38
2023-05-05T21:35:15.844Z,100310.38
2023-05-05T21:37:47.235Z,100308.13
2023-05-05T21:40:17.585Z,100297.09
2023-05-05T21:42:47.391Z,100300.09
2023-05-05T21:45:19.132Z,100296.25
2023-05-05T21:47:52.113Z,100299.56
2023-05-05T21:50:29.625Z,100298.47
2023-05-05T21:52:57.495Z,100299.34
2023-05-05T21:55:26.649Z,100298.47
2023-05-05T21:57:55.939Z,100301.47
2023-05-05T22:00:27.778Z,100291.06
2023-05-05T22:02:58.375Z,100292.50
2023-05-05T22:05:26.458Z,100296.91
2023-05-05T22:07:55.136Z,100289.75
2023-05-05T22:10:28.518Z,100298.31
2023-05-05T22:12:56.893Z,100293.25
2023-05-05T22:15:32.794Z,100303.75
2023-05-05T22:18:09.741Z,100300.72
2023-05-05T22:20:41.737Z,100298.81
2023-05-05T22:23:09.933Z,100300.41
2023-05-05T22:25:38.388Z,100308.91
2023-05-05T22:28:07.583Z,100305.59
2023-05-05T22:30:38.986Z,100305.94
2023-05-05T22:33:09.121Z,100306.22
2023-05-05T22:35:40.241Z,100301.88
2023-05-05T22:38:08.410Z,100298.16
2023-05-05T22:40:37.748Z,100302.94
2023-05-05T22:43:05.784Z,100306.63
2023-05-05T22:45:34.092Z,100304.41
2023-05-05T22:48:02.743Z,100309.63
2023-05-05T22:50:32.434Z,100309.94
2023-05-05T22:53:00.269Z,100312.03
2023-05-05T22:55:28.365Z,100309.03
2023-05-05T22:57:56.617Z,100307.66
2023-05-05T23:00:27.302Z,100315.66
2023-05-05T23:02:56.715Z,100321.84
2023-05-05T23:05:29.321Z,100320.78
2023-05-05T23:08:01.503Z,100327.69
2023-05-05T23:10:31.340Z,100332.09
2023-05-05T23:12:59.571Z,100331.63
2023-05-05T23:15:28.286Z,100330.94
2023-05-05T23:17:57.548Z,100330.44
2023-05-05T23:20:27.427Z,100333.13
2023-05-05T23:23:06.280Z,100335.41
2023-05-05T23:25:46.038Z,100332.44
2023-05-05T23:28:15.971Z,100331.56
2023-05-05T23:30:44.065Z,100344.47
2023-05-05T23:33:12.223Z,100342.06
2023-05-05T23:35:43.452Z,100345.06
2023-05-05T23:38:13.155Z,100347.00
2023-05-05T23:40:42.288Z,100339.34
2023-05-05T23:43:11.891Z,100333.53
2023-05-05T23:45:42.248Z,100328.84
2023-05-05T23:48:12.852Z,100332.47
2023-05-05T23:50:42.179Z,100312.53
2023-05-05T23:53:14.669Z,100319.53
2023-05-05T23:55:44.176Z,100315.53
2023-05-05T23:58:14.534Z,100323.91
